METAR UND TAF INFORMATION
LOWK 161020Z VRB03KT 9999 FEW050 SCT080 24/13 Q1016 NOSIG

 FLUGHAFENKARTE

 RUNWAY INFORMATION
Runway 10L Runway length 8924 ft Runway width 148 ft
Runway elevation 1470 ft Runway displaced threshold 656 ft Runway heading 106
Runway 28R Runway length 8924 ft Runway width 148 ft
Runway elevation 1445 ft Runway displaced threshold 0 ft Runway heading 286
Runway 10R Runway length 2427 ft Runway width 90 ft
Runway elevation 1470 ft Runway displaced threshold 196 ft Runway heading 106
Runway 28L Runway length 2427 ft Runway width 90 ft
Runway elevation 1463 ft Runway displaced threshold 196 ft Runway heading 286

 AIRPORT FREQUENCIES
Type APP Name APP Frequency 126.825 MHZ
Type ATIS Name ATIS Frequency 124.075 MHZ
Type TWR Name TWR Frequency 118.1 MHZ

 AIRPORT NEAR NAVIGATION AIDS
Type VOR-DME Name Klagenfurt Frequency 113100 KHZ
Type NDB Name Klagenfurt Frequency 374 KHZ
Type NDB Name Klagenfurt Frequency 405 KHZ
Type VOR-DME Name Villach Frequency 112900 KHZ